createdAt,value
2022-11-05T00:02:39.393Z,86.03
2022-11-05T00:05:25.650Z,85.37
2022-11-05T00:08:12.449Z,87.56
2022-11-05T00:10:40.227Z,86.69
2022-11-05T00:13:36.631Z,86.84
2022-11-05T00:16:36.482Z,87.80
2022-11-05T00:19:10.155Z,87.48
2022-11-05T00:22:02.144Z,86.78
2022-11-05T00:24:47.347Z,87.12
2022-11-05T00:27:14.923Z,86.63
2022-11-05T00:29:43.830Z,88.13
2022-11-05T00:32:11.420Z,87.12
2022-11-05T00:34:39.033Z,87.09
2022-11-05T00:37:06.841Z,85.94
2022-11-05T00:39:34.453Z,85.55
2022-11-05T00:42:21.627Z,85.52
2022-11-05T00:45:02.638Z,85.51
2022-11-05T00:47:48.037Z,87.30
2022-11-05T00:50:15.816Z,87.57
2022-11-05T00:52:59.503Z,87.10
2022-11-05T00:55:34.629Z,86.94
2022-11-05T00:58:03.908Z,87.88
2022-11-05T01:00:35.074Z,88.02
2022-11-05T01:03:05.166Z,87.47
2022-11-05T01:05:34.248Z,88.44
2022-11-05T01:08:02.263Z,87.55
2022-11-05T01:10:30.215Z,87.72
2022-11-05T01:12:58.991Z,88.16
2022-11-05T01:15:26.702Z,87.12
2022-11-05T01:17:55.604Z,89.30
2022-11-05T01:20:23.280Z,89.93
2022-11-05T01:22:50.850Z,88.79
2022-11-05T01:25:18.671Z,88.98
2022-11-05T01:27:46.581Z,88.73
2022-11-05T01:30:15.026Z,87.88
2022-11-05T01:32:42.611Z,88.10
2022-11-05T01:35:18.335Z,88.33
2022-11-05T01:37:46.672Z,87.64
2022-11-05T01:40:15.978Z,87.89
2022-11-05T01:42:43.655Z,87.54
2022-11-05T01:45:17.868Z,89.79
2022-11-05T01:48:01.582Z,89.81
2022-11-05T01:50:38.450Z,89.29
2022-11-05T01:53:13.996Z,88.29
2022-11-05T01:55:45.103Z,90.21
2022-11-05T01:58:16.027Z,88.91
2022-11-05T02:00:44.394Z,88.90
2022-11-05T02:03:14.133Z,90.31
2022-11-05T02:05:43.986Z,89.62
2022-11-05T02:08:20.493Z,89.28
2022-11-05T02:10:49.507Z,90.10
2022-11-05T02:13:17.064Z,91.00
2022-11-05T02:15:54.804Z,89.07
2022-11-05T02:18:32.459Z,89.86
2022-11-05T02:21:18.431Z,90.13
2022-11-05T02:24:26.244Z,89.97
2022-11-05T02:27:08.946Z,89.60
2022-11-05T02:30:20.395Z,90.46
2022-11-05T02:33:19.841Z,91.39
2022-11-05T02:36:11.607Z,89.44
2022-11-05T02:38:44.126Z,89.95
2022-11-05T02:41:19.502Z,90.19
2022-11-05T02:43:56.550Z,91.85
2022-11-05T02:46:35.191Z,91.58
2022-11-05T02:49:14.477Z,90.79
2022-11-05T02:51:49.043Z,90.77
2022-11-05T02:54:22.801Z,92.12
2022-11-05T02:56:53.600Z,90.92
2022-11-05T02:59:21.238Z,92.15
2022-11-05T03:01:52.224Z,90.68
2022-11-05T03:04:22.817Z,89.76
2022-11-05T03:07:05.327Z,90.61
2022-11-05T03:10:02.159Z,90.67
2022-11-05T03:12:39.101Z,90.17
2022-11-05T03:15:17.463Z,89.99
2022-11-05T03:18:01.972Z,89.59
2022-11-05T03:20:36.315Z,88.80
2022-11-05T03:23:10.375Z,88.17
2022-11-05T03:25:42.810Z,89.28
2022-11-05T03:28:11.884Z,89.28
2022-11-05T03:30:41.945Z,89.54
2022-11-05T03:33:17.180Z,89.69
2022-11-05T03:35:48.066Z,89.77
2022-11-05T03:38:21.357Z,89.15
2022-11-05T03:40:53.627Z,89.66
2022-11-05T03:43:24.512Z,90.88
2022-11-05T03:45:56.620Z,90.15
2022-11-05T03:48:29.556Z,89.53
2022-11-05T03:51:03.652Z,88.62
2022-11-05T03:53:37.557Z,88.78
2022-11-05T03:56:10.010Z,89.29
2022-11-05T03:58:41.789Z,88.77
2022-11-05T04:01:09.857Z,88.57
2022-11-05T04:03:39.064Z,88.68
2022-11-05T04:06:26.266Z,87.64
2022-11-05T04:09:11.576Z,88.58
2022-11-05T04:11:56.854Z,88.80
2022-11-05T04:14:26.147Z,89.25
2022-11-05T04:17:09.921Z,87.79
2022-11-05T04:19:58.137Z,88.94
2022-11-05T04:22:44.908Z,90.30
2022-11-05T04:25:13.548Z,89.36
2022-11-05T04:27:41.372Z,88.45
2022-11-05T04:30:21.609Z,88.80
2022-11-05T04:33:06.899Z,89.48
2022-11-05T04:35:37.899Z,89.30
2022-11-05T04:38:07.428Z,88.90
2022-11-05T04:40:35.868Z,89.88
2022-11-05T04:43:03.943Z,89.16
2022-11-05T04:45:34.171Z,90.11
2022-11-05T04:48:01.816Z,90.86
2022-11-05T04:50:29.813Z,90.20
2022-11-05T04:52:58.812Z,91.41
2022-11-05T04:55:26.968Z,89.55
2022-11-05T04:57:55.966Z,89.57
2022-11-05T05:00:25.105Z,88.28
2022-11-05T05:02:52.936Z,90.48
2022-11-05T05:05:21.910Z,90.80
2022-11-05T05:07:49.503Z,91.51
2022-11-05T05:10:18.849Z,90.80
2022-11-05T05:12:46.434Z,90.93
2022-11-05T05:15:14.229Z,90.38
2022-11-05T05:17:41.831Z,89.80
2022-11-05T05:20:41.610Z,92.73
2022-11-05T05:23:09.384Z,92.67
2022-11-05T05:25:38.509Z,91.11
2022-11-05T05:28:06.352Z,91.57
2022-11-05T05:30:33.909Z,90.93
2022-11-05T05:33:03.753Z,89.62
2022-11-05T05:35:31.487Z,90.56
2022-11-05T05:37:59.111Z,89.71
2022-11-05T05:40:27.519Z,89.15
2022-11-05T05:42:56.792Z,89.59
2022-11-05T05:45:24.418Z,88.99
2022-11-05T05:47:51.977Z,88.88
2022-11-05T05:50:19.537Z,89.01
2022-11-05T05:52:47.112Z,91.99
2022-11-05T05:55:15.293Z,90.15
2022-11-05T05:57:42.859Z,91.04
2022-11-05T06:00:13.826Z,90.11
2022-11-05T06:02:41.653Z,92.19
2022-11-05T06:05:11.072Z,91.21
2022-11-05T06:07:38.675Z,92.52
2022-11-05T06:10:07.367Z,91.59
2022-11-05T06:12:34.966Z,91.34
2022-11-05T06:15:04.112Z,90.42
2022-11-05T06:17:34.009Z,90.43
2022-11-05T06:20:01.755Z,89.79
2022-11-05T06:22:29.433Z,88.95
2022-11-05T06:24:56.984Z,91.14
2022-11-05T06:27:24.608Z,89.98
2022-11-05T06:29:52.181Z,92.68
2022-11-05T06:32:19.830Z,92.17
2022-11-05T06:34:48.787Z,92.34
2022-11-05T06:37:16.456Z,93.73
2022-11-05T06:39:44.053Z,92.80
2022-11-05T06:42:18.286Z,93.69
2022-11-05T06:44:46.453Z,93.12
2022-11-05T06:47:14.079Z,93.71
2022-11-05T06:49:41.702Z,92.73
2022-11-05T06:52:10.649Z,90.15
2022-11-05T06:54:38.282Z,92.11
2022-11-05T06:57:06.180Z,91.94
2022-11-05T06:59:34.368Z,91.23
2022-11-05T07:02:02.144Z,91.41
2022-11-05T07:04:29.750Z,90.46
2022-11-05T07:06:57.330Z,91.15
2022-11-05T07:09:26.280Z,92.52
2022-11-05T07:11:53.912Z,91.02
2022-11-05T07:14:21.488Z,91.58
2022-11-05T07:16:49.104Z,93.43
2022-11-05T07:19:16.692Z,91.08
2022-11-05T07:21:44.268Z,90.36
2022-11-05T07:24:11.987Z,83.57
2022-11-05T07:26:40.917Z,82.34
2022-11-05T07:29:08.525Z,75.49
2022-11-05T07:31:36.217Z,71.68
2022-11-05T07:34:03.941Z,68.08
2022-11-05T07:36:31.618Z,66.79
2022-11-05T07:39:00.655Z,65.31
2022-11-05T07:41:29.236Z,66.33
2022-11-05T07:43:58.234Z,61.10
2022-11-05T07:46:25.829Z,61.95
2022-11-05T07:48:53.419Z,61.00
2022-11-05T07:51:21.061Z,61.56
2022-11-05T07:53:49.162Z,61.58
2022-11-05T07:56:16.922Z,59.67
2022-11-05T07:58:44.513Z,58.39
2022-11-05T08:01:13.537Z,61.31
2022-11-05T08:03:41.440Z,58.91
2022-11-05T08:06:09.092Z,62.46
2022-11-05T08:08:36.757Z,61.65
2022-11-05T08:11:05.328Z,57.17
2022-11-05T08:13:33.119Z,64.03
2022-11-05T08:16:01.945Z,59.39
2022-11-05T08:18:32.312Z,59.17
2022-11-05T08:21:01.733Z,59.73
2022-11-05T08:23:31.103Z,60.15
2022-11-05T08:25:59.746Z,56.79
2022-11-05T08:28:27.599Z,54.64
2022-11-05T08:30:57.404Z,57.06
2022-11-05T08:33:25.834Z,65.49
2022-11-05T08:35:54.758Z,69.45
2022-11-05T08:38:22.358Z,71.06
2022-11-05T08:40:56.455Z,72.98
2022-11-05T08:43:24.346Z,75.70
2022-11-05T08:45:51.952Z,77.05
2022-11-05T08:48:19.950Z,78.99
2022-11-05T08:50:49.246Z,78.63
2022-11-05T08:53:18.388Z,81.21
2022-11-05T08:55:47.766Z,80.68
2022-11-05T08:58:17.601Z,79.98
2022-11-05T09:00:47.114Z,80.34
2022-11-05T09:03:15.753Z,79.65
2022-11-05T09:05:43.881Z,79.11
2022-11-05T09:08:13.398Z,80.62
2022-11-05T09:10:43.046Z,81.14
2022-11-05T09:13:17.936Z,81.83
2022-11-05T09:15:47.008Z,80.78
2022-11-05T09:18:15.776Z,80.50
2022-11-05T09:20:43.577Z,80.63
2022-11-05T09:23:12.727Z,79.29
2022-11-05T09:25:41.882Z,82.09
2022-11-05T09:28:15.903Z,80.93
2022-11-05T09:30:46.403Z,81.85
2022-11-05T09:33:14.584Z,80.98
2022-11-05T09:35:42.748Z,78.82
2022-11-05T09:38:10.596Z,79.49
2022-11-05T09:40:44.072Z,79.30
2022-11-05T09:43:18.970Z,79.67
2022-11-05T09:45:50.419Z,80.79
2022-11-05T09:48:20.871Z,79.59
2022-11-05T09:50:49.686Z,78.49
2022-11-05T09:53:19.722Z,80.19
2022-11-05T09:55:50.921Z,78.90
2022-11-05T09:58:28.364Z,78.07
2022-11-05T10:00:57.203Z,80.81
2022-11-05T10:03:27.816Z,80.32
2022-11-05T10:06:01.763Z,80.23
2022-11-05T10:08:33.730Z,81.86
2022-11-05T10:11:08.334Z,81.18
2022-11-05T10:13:41.157Z,81.77
2022-11-05T10:16:20.896Z,81.15
2022-11-05T10:18:53.040Z,80.81
2022-11-05T10:21:44.301Z,80.06
2022-11-05T10:24:15.209Z,81.67
2022-11-05T10:26:47.566Z,79.51
2022-11-05T10:29:21.396Z,79.22
2022-11-05T10:31:49.713Z,79.40
2022-11-05T10:34:17.863Z,79.66
2022-11-05T10:36:45.535Z,78.30
2022-11-05T10:39:15.065Z,76.77
2022-11-05T10:41:59.220Z,75.47
2022-11-05T10:44:35.198Z,76.78
2022-11-05T10:47:20.579Z,77.52
2022-11-05T10:49:57.678Z,76.42
2022-11-05T10:52:29.180Z,78.38
2022-11-05T10:55:01.370Z,78.32
2022-11-05T10:57:35.794Z,77.77
2022-11-05T11:00:28.766Z,78.03
2022-11-05T11:02:59.504Z,77.96
2022-11-05T11:05:29.940Z,77.13
2022-11-05T11:08:02.279Z,78.08
2022-11-05T11:10:33.910Z,77.33
2022-11-05T11:13:03.241Z,76.61
2022-11-05T11:15:33.473Z,76.62
2022-11-05T11:18:25.614Z,75.39
2022-11-05T11:20:53.384Z,77.46
2022-11-05T11:23:20.953Z,76.33
2022-11-05T11:25:53.099Z,75.40
2022-11-05T11:28:26.744Z,74.78
2022-11-05T11:31:07.772Z,76.34
2022-11-05T11:33:37.687Z,74.57
2022-11-05T11:36:06.646Z,74.65
2022-11-05T11:38:36.993Z,74.10
2022-11-05T11:41:23.847Z,74.33
2022-11-05T11:43:57.066Z,76.28
2022-11-05T11:46:24.765Z,74.71
2022-11-05T11:48:52.630Z,74.29
2022-11-05T11:51:31.076Z,72.72
2022-11-05T11:53:59.992Z,74.15
2022-11-05T11:56:28.982Z,73.60
2022-11-05T11:59:02.143Z,73.42
2022-11-05T12:01:49.708Z,74.37
2022-11-05T12:04:30.234Z,73.16
2022-11-05T12:07:09.631Z,73.90
2022-11-05T12:09:54.089Z,73.37
2022-11-05T12:12:27.041Z,72.66
2022-11-05T12:14:59.624Z,73.67
2022-11-05T12:17:40.038Z,72.98
2022-11-05T12:20:26.013Z,74.27
2022-11-05T12:23:08.481Z,75.66
2022-11-05T12:25:45.703Z,73.87
2022-11-05T12:28:57.871Z,73.82
2022-11-05T12:31:35.707Z,73.33
2022-11-05T12:34:17.603Z,71.85
2022-11-05T12:37:03.870Z,73.17
2022-11-05T12:40:08.563Z,73.82
2022-11-05T12:42:52.880Z,72.17
2022-11-05T12:45:30.712Z,72.95
2022-11-05T12:48:12.822Z,73.64
2022-11-05T12:50:46.126Z,74.90
2022-11-05T12:53:32.403Z,73.10
2022-11-05T12:56:04.610Z,74.03
2022-11-05T12:58:37.375Z,74.26
2022-11-05T13:01:12.803Z,75.38
2022-11-05T13:03:46.081Z,73.35
2022-11-05T13:06:16.964Z,72.07
2022-11-05T13:08:53.335Z,73.61
2022-11-05T13:11:26.387Z,72.71
2022-11-05T13:14:12.928Z,73.38
2022-11-05T13:16:44.792Z,74.05
2022-11-05T13:19:19.921Z,72.88
2022-11-05T13:21:51.991Z,75.44
2022-11-05T13:24:24.511Z,75.13
2022-11-05T13:26:56.396Z,75.15
2022-11-05T13:29:32.323Z,74.23
2022-11-05T13:32:05.656Z,74.89
2022-11-05T13:34:37.546Z,75.32
2022-11-05T13:37:26.166Z,75.96
2022-11-05T13:39:57.058Z,74.40
2022-11-05T13:42:58.419Z,76.50
2022-11-05T13:45:55.238Z,76.29
2022-11-05T13:48:39.476Z,75.48
2022-11-05T13:51:39.121Z,75.56
2022-11-05T13:54:44.477Z,74.36
2022-11-05T13:57:32.160Z,73.74
2022-11-05T14:00:08.016Z,74.90
2022-11-05T14:02:40.144Z,74.97
2022-11-05T14:05:20.917Z,74.31
2022-11-05T14:07:50.437Z,74.72
2022-11-05T14:10:26.914Z,76.35
2022-11-05T14:12:56.717Z,76.19
2022-11-05T14:15:28.375Z,77.27
2022-11-05T14:17:59.280Z,75.34
2022-11-05T14:20:40.409Z,76.37
2022-11-05T14:23:47.552Z,77.03
2022-11-05T14:26:20.617Z,75.73
2022-11-05T14:28:50.527Z,76.09
2022-11-05T14:31:54.627Z,75.67
2022-11-05T14:34:24.772Z,76.36
2022-11-05T14:37:22.601Z,77.74
2022-11-05T14:39:51.004Z,77.37
2022-11-05T14:42:25.275Z,78.21
2022-11-05T14:45:08.855Z,77.28
2022-11-05T14:47:39.738Z,77.49
2022-11-05T14:50:19.062Z,77.13
2022-11-05T14:52:53.156Z,77.68
2022-11-05T14:55:29.344Z,77.00
2022-11-05T14:58:28.156Z,78.47
2022-11-05T15:00:57.583Z,77.93
2022-11-05T15:04:00.419Z,78.30
2022-11-05T15:06:31.406Z,79.65
2022-11-05T15:09:13.771Z,78.82
2022-11-05T15:11:46.600Z,79.19
2022-11-05T15:14:24.145Z,80.78
2022-11-05T15:16:54.452Z,79.92
2022-11-05T15:19:25.906Z,80.15
2022-11-05T15:21:57.670Z,79.71
2022-11-05T15:24:28.108Z,80.11
2022-11-05T15:27:03.990Z,81.56
2022-11-05T15:29:34.184Z,82.34
2022-11-05T15:32:02.074Z,81.82
2022-11-05T15:34:31.978Z,82.51
2022-11-05T15:37:01.688Z,82.32
2022-11-05T15:39:39.493Z,82.86
2022-11-05T15:42:13.327Z,82.48
2022-11-05T15:44:44.164Z,80.88
2022-11-05T15:47:21.617Z,82.62
2022-11-05T15:49:51.756Z,83.52
2022-11-05T15:52:21.613Z,81.92
2022-11-05T15:55:07.746Z,81.10
2022-11-05T15:57:40.026Z,83.10
2022-11-05T16:00:18.175Z,81.61
2022-11-05T16:02:53.645Z,82.89
2022-11-05T16:05:22.190Z,84.01
2022-11-05T16:07:50.091Z,83.16
2022-11-05T16:10:20.615Z,85.19
2022-11-05T16:12:48.544Z,82.47
2022-11-05T16:15:23.840Z,81.84
2022-11-05T16:17:54.552Z,80.78
2022-11-05T16:20:26.356Z,81.97
2022-11-05T16:22:55.783Z,81.38
2022-11-05T16:25:38.196Z,80.34
2022-11-05T16:28:08.223Z,81.28
2022-11-05T16:30:37.166Z,80.36
2022-11-05T16:33:07.437Z,82.55
2022-11-05T16:35:40.991Z,82.23
2022-11-05T16:38:13.044Z,82.35
2022-11-05T16:40:41.050Z,81.39
2022-11-05T16:43:18.263Z,84.40
2022-11-05T16:45:48.201Z,82.22
2022-11-05T16:48:17.236Z,81.67
2022-11-05T16:50:45.970Z,82.86
2022-11-05T16:53:13.838Z,82.94
2022-11-05T16:55:43.552Z,82.00
2022-11-05T16:58:19.625Z,83.95
2022-11-05T17:00:50.155Z,82.30
2022-11-05T17:03:18.516Z,83.54
2022-11-05T17:05:46.567Z,82.08
2022-11-05T17:08:15.447Z,82.49
2022-11-05T17:10:44.060Z,82.38
2022-11-05T17:13:15.233Z,82.85
2022-11-05T17:15:44.106Z,82.50
2022-11-05T17:18:18.105Z,83.43
2022-11-05T17:20:48.502Z,81.75
2022-11-05T17:23:18.537Z,82.75
2022-11-05T17:25:49.766Z,82.87
2022-11-05T17:28:18.248Z,83.39
2022-11-05T17:30:52.298Z,81.48
2022-11-05T17:33:23.502Z,82.75
2022-11-05T17:35:52.444Z,83.13
2022-11-05T17:38:20.909Z,82.94
2022-11-05T17:40:48.675Z,83.83
2022-11-05T17:43:16.493Z,83.84
2022-11-05T17:45:45.169Z,83.21
2022-11-05T17:48:13.750Z,82.64
2022-11-05T17:50:44.227Z,85.61
2022-11-05T17:53:13.617Z,84.20
2022-11-05T17:55:42.537Z,85.45
2022-11-05T17:58:10.673Z,86.65
2022-11-05T18:00:39.246Z,84.89
2022-11-05T18:03:06.846Z,85.30
2022-11-05T18:05:35.600Z,85.60
2022-11-05T18:08:05.410Z,85.02
2022-11-05T18:10:33.669Z,84.64
2022-11-05T18:13:01.264Z,85.52
2022-11-05T18:15:29.247Z,86.48
2022-11-05T18:17:56.893Z,86.71
2022-11-05T18:20:24.624Z,85.26
2022-11-05T18:22:52.555Z,84.16
2022-11-05T18:25:21.524Z,84.67
2022-11-05T18:27:49.288Z,85.13
2022-11-05T18:30:16.952Z,85.40
2022-11-05T18:32:45.413Z,86.23
2022-11-05T18:35:14.602Z,85.21
2022-11-05T18:37:42.303Z,85.52
2022-11-05T18:40:10.891Z,85.28
2022-11-05T18:42:39.841Z,84.82
2022-11-05T18:45:09.238Z,85.45
2022-11-05T18:47:37.072Z,83.68
2022-11-05T18:50:06.270Z,84.84
2022-11-05T18:52:34.030Z,84.22
2022-11-05T18:55:01.664Z,85.43
2022-11-05T18:57:29.576Z,83.63
2022-11-05T18:59:58.631Z,84.76
2022-11-05T19:02:26.612Z,85.01
2022-11-05T19:05:27.392Z,84.99
2022-11-05T19:07:41.882Z,85.49
2022-11-05T19:10:10.350Z,84.51
2022-11-05T19:12:37.982Z,83.08
2022-11-05T19:15:08.323Z,83.96
2022-11-05T19:17:36.619Z,84.40
2022-11-05T19:20:05.381Z,85.00
2022-11-05T19:22:33.166Z,86.47
2022-11-05T19:25:01.505Z,86.05
2022-11-05T19:27:29.309Z,84.03
2022-11-05T19:29:56.940Z,83.37
2022-11-05T19:32:25.927Z,82.97
2022-11-05T19:34:53.481Z,84.91
2022-11-05T19:37:21.024Z,83.18
2022-11-05T19:39:48.634Z,85.16
2022-11-05T19:42:16.312Z,85.97
2022-11-05T19:44:44.122Z,85.04
2022-11-05T19:47:11.984Z,84.46
2022-11-05T19:49:41.127Z,83.65
2022-11-05T19:52:08.697Z,83.77
2022-11-05T19:54:36.460Z,81.69
2022-11-05T19:57:04.163Z,82.89
2022-11-05T19:59:32.209Z,83.40
2022-11-05T20:01:59.946Z,81.66
2022-11-05T20:04:27.756Z,82.26
2022-11-05T20:06:56.727Z,83.96
2022-11-05T20:09:24.584Z,84.57
2022-11-05T20:11:54.143Z,84.57
2022-11-05T20:14:21.910Z,84.44
2022-11-05T20:16:50.293Z,83.39
2022-11-05T20:19:20.066Z,82.93
2022-11-05T20:21:47.779Z,85.23
2022-11-05T20:24:24.052Z,83.88
2022-11-05T20:26:53.024Z,85.45
2022-11-05T20:29:20.653Z,85.01
2022-11-05T20:31:48.471Z,84.66
2022-11-05T20:34:16.024Z,84.03
2022-11-05T20:36:43.629Z,82.76
2022-11-05T20:39:11.951Z,85.46
2022-11-05T20:41:40.856Z,85.87
2022-11-05T20:44:08.447Z,84.49
2022-11-05T20:46:36.181Z,84.89
2022-11-05T20:49:03.806Z,84.33
2022-11-05T20:51:31.475Z,82.61
2022-11-05T20:54:00.692Z,83.86
2022-11-05T20:56:30.367Z,82.48
2022-11-05T20:59:00.494Z,84.00
2022-11-05T21:01:29.984Z,85.33
2022-11-05T21:03:59.528Z,84.00
2022-11-05T21:06:27.518Z,82.30
2022-11-05T21:08:55.357Z,82.56
2022-11-05T21:11:23.190Z,84.24
2022-11-05T21:13:51.104Z,83.41
2022-11-05T21:16:20.847Z,83.86
2022-11-05T21:18:48.930Z,81.85
2022-11-05T21:21:19.425Z,82.87
2022-11-05T21:23:47.050Z,83.37
2022-11-05T21:26:16.927Z,84.35
2022-11-05T21:28:44.605Z,82.83
2022-11-05T21:31:12.408Z,82.91
2022-11-05T21:33:41.665Z,83.43
2022-11-05T21:36:11.591Z,82.59
2022-11-05T21:38:39.836Z,81.50
2022-11-05T21:41:08.755Z,82.57
2022-11-05T21:43:36.371Z,83.59
2022-11-05T21:46:05.289Z,81.02
2022-11-05T21:48:34.385Z,83.45
2022-11-05T21:51:35.464Z,83.09
2022-11-05T21:54:20.506Z,82.35
2022-11-05T21:57:09.800Z,81.96
2022-11-05T21:59:51.907Z,84.18
2022-11-05T22:02:21.596Z,83.57
2022-11-05T22:04:51.168Z,84.59
2022-11-05T22:07:21.571Z,82.48
2022-11-05T22:09:49.841Z,85.07
2022-11-05T22:12:17.592Z,84.35
2022-11-05T22:14:45.253Z,84.57
2022-11-05T22:17:13.609Z,83.88
2022-11-05T22:19:41.180Z,83.45
2022-11-05T22:22:08.820Z,83.48
2022-11-05T22:24:38.233Z,83.18
2022-11-05T22:27:07.890Z,82.46
2022-11-05T22:29:36.705Z,83.78
2022-11-05T22:32:04.953Z,83.05
2022-11-05T22:34:32.574Z,84.41
2022-11-05T22:37:00.268Z,83.54
2022-11-05T22:39:27.990Z,82.39
2022-11-05T22:41:58.370Z,81.35
2022-11-05T22:44:27.914Z,81.20
2022-11-05T22:46:56.067Z,81.18
2022-11-05T22:49:24.016Z,81.58
2022-11-05T22:51:51.830Z,82.21
2022-11-05T22:54:19.631Z,83.41
2022-11-05T22:56:48.187Z,83.39
2022-11-05T22:59:17.424Z,82.15
2022-11-05T23:01:46.173Z,84.45
2022-11-05T23:04:14.916Z,81.71
2022-11-05T23:07:00.815Z,82.02
2022-11-05T23:09:48.730Z,81.77
2022-11-05T23:12:26.322Z,81.81
2022-11-05T23:14:56.755Z,82.33
2022-11-05T23:17:53.320Z,82.04
2022-11-05T23:20:41.434Z,82.99
2022-11-05T23:23:28.648Z,83.17
2022-11-05T23:25:57.875Z,82.05
2022-11-05T23:28:25.610Z,81.11
2022-11-05T23:31:12.321Z,82.23
2022-11-05T23:33:39.920Z,82.11
2022-11-05T23:36:25.630Z,83.23
2022-11-05T23:38:53.245Z,84.08
2022-11-05T23:41:38.429Z,83.19
2022-11-05T23:44:23.862Z,83.16
2022-11-05T23:47:10.432Z,83.55
2022-11-05T23:49:38.025Z,83.10
2022-11-05T23:52:05.699Z,82.08
2022-11-05T23:54:33.277Z,81.09
2022-11-05T23:57:00.862Z,80.83
2022-11-05T23:59:28.435Z,81.35
